createdAt,value
2023-03-13T00:00:55.856Z,9.2
2023-03-13T00:01:55.980Z,9.2
2023-03-13T00:02:55.937Z,9.3
2023-03-13T00:03:55.975Z,9.3
2023-03-13T00:04:56.076Z,9.3
2023-03-13T00:05:56.082Z,9.4
2023-03-13T00:06:56.160Z,9.4
2023-03-13T00:07:56.160Z,9.4
2023-03-13T00:08:56.213Z,9.4
2023-03-13T00:09:56.169Z,9.4
2023-03-13T00:10:56.243Z,9.4
2023-03-13T00:11:56.404Z,9.4
2023-03-13T00:12:56.287Z,9.4
2023-03-13T00:13:56.383Z,9.4
2023-03-13T00:14:56.334Z,9.4
2023-03-13T00:15:56.399Z,9.4
2023-03-13T00:16:56.526Z,9.4
2023-03-13T00:17:56.434Z,9.4
2023-03-13T00:18:56.489Z,9.4
2023-03-13T00:19:56.529Z,9.4
2023-03-13T00:20:56.534Z,9.4
2023-03-13T00:21:56.637Z,9.4
2023-03-13T00:22:56.606Z,9.3
2023-03-13T00:24:03.031Z,9.4
2023-03-13T00:24:56.748Z,9.4
2023-03-13T00:25:56.804Z,9.4
2023-03-13T00:26:56.951Z,9.5
2023-03-13T00:27:56.922Z,9.5
2023-03-13T00:28:57.088Z,9.5
2023-03-13T00:29:57.097Z,9.6
2023-03-13T00:30:57.157Z,9.6
2023-03-13T00:31:57.294Z,9.5
2023-03-13T00:32:58.908Z,9.4
2023-03-13T00:34:01.355Z,9.4
2023-03-13T00:34:57.428Z,9.5
2023-03-13T00:35:57.488Z,9.6
2023-03-13T00:37:00.022Z,9.6
2023-03-13T00:37:57.629Z,9.6
2023-03-13T00:39:00.223Z,9.6
2023-03-13T00:39:57.753Z,9.6
2023-03-13T00:40:59.745Z,9.7
2023-03-13T00:41:57.907Z,9.7
2023-03-13T00:43:01.539Z,9.6
2023-03-13T00:44:07.276Z,9.6
2023-03-13T00:45:04.469Z,9.6
2023-03-13T00:45:58.138Z,9.6
2023-03-13T00:47:03.548Z,9.5
2023-03-13T00:47:58.139Z,9.6
2023-03-13T00:49:20.866Z,9.6
2023-03-13T00:49:58.204Z,9.6
2023-03-13T00:50:58.256Z,9.6
2023-03-13T00:53:05.325Z,9.7
2023-03-13T00:53:58.351Z,9.6
2023-03-13T00:55:00.410Z,9.6
2023-03-13T00:55:58.484Z,9.6
2023-03-13T00:56:58.551Z,9.6
2023-03-13T00:57:58.578Z,9.6
2023-03-13T00:59:02.449Z,9.6
2023-03-13T00:59:58.885Z,9.6
2023-03-13T01:01:01.960Z,9.5
2023-03-13T01:01:58.745Z,9.5
2023-03-13T01:03:09.016Z,9.5
2023-03-13T01:03:58.759Z,9.4
2023-03-13T01:05:02.097Z,9.4
2023-03-13T01:06:00.803Z,9.4
2023-03-13T01:07:01.959Z,9.4
2023-03-13T01:07:58.919Z,9.4
2023-03-13T01:09:02.893Z,9.3
2023-03-13T01:09:58.988Z,9.3
2023-03-13T01:11:01.855Z,9.3
2023-03-13T01:11:59.048Z,9.2
2023-03-13T01:13:08.875Z,9.2
2023-03-13T01:13:59.072Z,9.2
2023-03-13T01:15:03.450Z,9.2
2023-03-13T01:15:59.178Z,9.1
2023-03-13T01:17:02.350Z,9.1
2023-03-13T01:17:59.200Z,9.1
2023-03-13T01:19:02.538Z,9
2023-03-13T01:19:59.265Z,9
2023-03-13T01:21:01.821Z,8.9
2023-03-13T01:21:59.303Z,8.9
2023-03-13T01:23:08.756Z,9
2023-03-13T01:24:09.261Z,9.1
2023-03-13T01:25:02.907Z,9
2023-03-13T01:25:59.419Z,8.9
2023-03-13T01:27:06.840Z,8.9
2023-03-13T01:27:59.487Z,8.9
2023-03-13T01:29:01.910Z,8.9
2023-03-13T01:30:04.581Z,8.8
2023-03-13T01:31:01.951Z,8.7
2023-03-13T01:31:59.634Z,8.7
2023-03-13T01:33:09.002Z,8.6
2023-03-13T01:33:59.648Z,8.6
2023-03-13T01:35:02.060Z,8.5
2023-03-13T01:36:04.807Z,8.5
2023-03-13T01:37:02.495Z,8.4
2023-03-13T01:37:59.897Z,8.4
2023-03-13T01:39:03.474Z,8.4
2023-03-13T01:40:00.103Z,8.4
2023-03-13T01:41:02.074Z,8.4
2023-03-13T01:42:05.094Z,8.4
2023-03-13T01:43:14.496Z,8.4
2023-03-13T01:44:00.367Z,8.4
2023-03-13T01:45:01.137Z,8.4
2023-03-13T01:46:00.633Z,8.4
2023-03-13T01:47:00.598Z,8.4
2023-03-13T01:48:06.209Z,8.4
2023-03-13T01:49:00.703Z,8.3
2023-03-13T01:50:06.197Z,8.4
2023-03-13T01:51:00.840Z,8.4
2023-03-13T01:52:05.899Z,8.5
2023-03-13T01:53:21.155Z,8.5
2023-03-13T01:54:01.346Z,8.4
2023-03-13T01:55:01.078Z,8.4
2023-03-13T01:56:11.267Z,8.3
2023-03-13T01:57:01.191Z,8.3
2023-03-13T01:58:11.469Z,8.4
2023-03-13T01:59:01.252Z,8.4
2023-03-13T02:00:01.289Z,8.4
2023-03-13T02:01:01.321Z,8.4
2023-03-13T02:02:01.473Z,8.4
2023-03-13T02:03:10.213Z,8.4
2023-03-13T02:04:01.624Z,8.4
2023-03-13T02:05:01.505Z,8.4
2023-03-13T02:06:01.594Z,8.4
2023-03-13T02:07:01.597Z,8.4
2023-03-13T02:08:07.694Z,8.3
2023-03-13T02:09:01.704Z,8.3
2023-03-13T02:10:24.060Z,8.3
2023-03-13T02:11:01.806Z,8.3
2023-03-13T02:12:23.857Z,8.3
2023-03-13T02:13:09.948Z,8.4
2023-03-13T02:14:58.484Z,8.2
2023-03-13T02:15:01.916Z,8.3
2023-03-13T02:16:24.149Z,8.3
2023-03-13T02:17:01.989Z,8.3
2023-03-13T02:18:25.569Z,8.3
2023-03-13T02:19:02.053Z,8.3
2023-03-13T02:20:24.109Z,8.3
2023-03-13T02:21:02.120Z,8.3
2023-03-13T02:22:23.537Z,8.3
2023-03-13T02:23:10.079Z,8.3
2023-03-13T02:24:24.158Z,8.4
2023-03-13T02:25:02.290Z,8.4
2023-03-13T02:26:24.409Z,8.4
2023-03-13T02:27:02.356Z,8.4
2023-03-13T02:28:24.741Z,8.4
2023-03-13T02:29:02.405Z,8.4
2023-03-13T02:30:24.828Z,8.4
2023-03-13T02:31:02.547Z,8.5
2023-03-13T02:32:24.078Z,8.6
2023-03-13T02:33:11.255Z,8.8
2023-03-13T02:34:24.120Z,8.8
2023-03-13T02:35:02.677Z,8.8
2023-03-13T02:36:23.688Z,8.8
2023-03-13T02:37:02.913Z,8.9
2023-03-13T02:38:24.024Z,8.9
2023-03-13T02:39:02.708Z,8.9
2023-03-13T02:40:24.045Z,8.9
2023-03-13T02:41:02.842Z,9.1
2023-03-13T02:42:23.796Z,9.1
2023-03-13T02:43:12.942Z,9.2
2023-03-13T02:44:23.797Z,9.3
2023-03-13T02:45:02.915Z,9.3
2023-03-13T02:46:24.188Z,9.3
2023-03-13T02:47:02.996Z,9.3
2023-03-13T02:48:24.557Z,9.3
2023-03-13T02:49:03.113Z,9.3
2023-03-13T02:50:24.844Z,9.4
2023-03-13T02:51:03.280Z,9.3
2023-03-13T02:52:24.283Z,9.3
2023-03-13T02:53:10.405Z,9.3
2023-03-13T02:54:04.237Z,9.3
2023-03-13T02:55:03.592Z,9.3
2023-03-13T02:56:03.665Z,9.3
2023-03-13T02:57:03.705Z,9.3
2023-03-13T02:58:03.792Z,9.3
2023-03-13T02:59:03.847Z,9.3
2023-03-13T03:00:03.949Z,9.3
2023-03-13T03:01:04.021Z,9.3
2023-03-13T03:02:04.064Z,9.4
2023-03-13T03:03:04.093Z,9.3
2023-03-13T03:04:04.190Z,9.3
2023-03-13T03:05:04.216Z,9.3
2023-03-13T03:06:04.295Z,9.3
2023-03-13T03:07:04.293Z,9.3
2023-03-13T03:08:04.501Z,9.3
2023-03-13T03:09:04.352Z,9.3
2023-03-13T03:10:04.536Z,9.3
2023-03-13T03:11:04.511Z,9.3
2023-03-13T03:12:12.579Z,9.3
2023-03-13T03:13:04.561Z,9.3
2023-03-13T03:14:10.387Z,9.4
2023-03-13T03:15:04.665Z,9.3
2023-03-13T03:16:27.265Z,9.3
2023-03-13T03:17:04.825Z,9.4
2023-03-13T03:18:27.571Z,9.4
2023-03-13T03:19:04.877Z,9.4
2023-03-13T03:20:26.914Z,9.4
2023-03-13T03:21:04.979Z,9.4
2023-03-13T03:22:26.572Z,9.4
2023-03-13T03:23:05.091Z,9.4
2023-03-13T03:24:26.540Z,9.3
2023-03-13T03:25:05.152Z,9.3
2023-03-13T03:26:28.719Z,9.3
2023-03-13T03:27:05.200Z,9.3
2023-03-13T03:28:28.079Z,9.3
2023-03-13T03:29:05.301Z,9.4
2023-03-13T03:30:27.541Z,9.4
2023-03-13T03:31:05.337Z,9.4
2023-03-13T03:32:28.530Z,9.5
2023-03-13T03:33:08.826Z,9.5
2023-03-13T03:34:26.943Z,9.5
2023-03-13T03:35:05.474Z,9.5
2023-03-13T03:36:26.944Z,9.6
2023-03-13T03:37:05.533Z,9.6
2023-03-13T03:39:03.321Z,9.6
2023-03-13T03:39:05.610Z,9.7
2023-03-13T03:40:26.757Z,9.7
2023-03-13T03:41:05.718Z,9.6
2023-03-13T03:42:10.768Z,9.6
2023-03-13T03:43:05.722Z,9.7
2023-03-13T03:44:05.768Z,9.7
2023-03-13T03:45:08.326Z,9.7
2023-03-13T03:46:05.858Z,9.7
2023-03-13T03:47:05.945Z,9.7
2023-03-13T03:48:08.108Z,9.7
2023-03-13T03:49:05.940Z,9.7
2023-03-13T03:50:05.954Z,9.7
2023-03-13T03:51:09.164Z,9.8
2023-03-13T03:52:06.024Z,9.8
2023-03-13T03:53:10.645Z,9.8
2023-03-13T03:54:07.730Z,9.8
2023-03-13T03:55:06.165Z,9.7
2023-03-13T03:56:06.164Z,9.7
2023-03-13T03:57:07.638Z,9.7
2023-03-13T03:58:06.230Z,9.7
2023-03-13T03:59:06.269Z,9.7
2023-03-13T04:00:08.000Z,9.8
2023-03-13T04:01:06.422Z,9.8
2023-03-13T04:02:06.528Z,9.8
2023-03-13T04:03:11.468Z,9.8
2023-03-13T04:04:06.676Z,9.8
2023-03-13T04:05:06.728Z,9.8
2023-03-13T04:06:21.844Z,9.8
2023-03-13T04:07:06.893Z,9.8
2023-03-13T04:08:06.968Z,9.8
2023-03-13T04:09:17.709Z,9.8
2023-03-13T04:10:07.061Z,9.8
2023-03-13T04:11:07.135Z,9.8
2023-03-13T04:12:10.681Z,9.8
2023-03-13T04:13:07.242Z,9.9
2023-03-13T04:14:07.312Z,9.9
2023-03-13T04:15:19.440Z,9.9
2023-03-13T04:16:07.412Z,9.9
2023-03-13T04:17:07.561Z,9.9
2023-03-13T04:18:19.086Z,9.9
2023-03-13T04:19:07.586Z,9.9
2023-03-13T04:20:07.669Z,9.9
2023-03-13T04:21:19.994Z,9.9
2023-03-13T04:22:16.786Z,9.9
2023-03-13T04:23:07.821Z,9.9
2023-03-13T04:24:15.126Z,9.9
2023-03-13T04:25:07.905Z,9.9
2023-03-13T04:26:08.002Z,9.9
2023-03-13T04:27:20.509Z,9.9
2023-03-13T04:28:08.087Z,9.9
2023-03-13T04:29:08.150Z,10
2023-03-13T04:31:47.264Z,10
2023-03-13T04:32:08.288Z,9.9
2023-03-13T04:33:08.437Z,9.9
2023-03-13T04:34:08.468Z,10
2023-03-13T04:35:08.507Z,10.1
2023-03-13T04:36:08.446Z,10
2023-03-13T04:37:08.579Z,10.1
2023-03-13T04:38:08.665Z,10.1
2023-03-13T04:39:09.500Z,10.1
2023-03-13T04:40:08.588Z,10.1
2023-03-13T04:41:15.868Z,10
2023-03-13T04:42:18.054Z,10
2023-03-13T04:43:08.655Z,10.1
2023-03-13T04:44:24.851Z,10.1
2023-03-13T04:45:08.679Z,10.1
2023-03-13T04:46:21.376Z,10.1
2023-03-13T04:47:12.231Z,10
2023-03-13T04:48:21.417Z,10
2023-03-13T04:49:09.047Z,10
2023-03-13T04:50:23.567Z,10
2023-03-13T04:51:08.873Z,10
2023-03-13T04:52:08.956Z,10
2023-03-13T04:53:22.947Z,10.1
2023-03-13T04:54:09.092Z,10.1
2023-03-13T04:55:09.028Z,10.1
2023-03-13T04:56:20.333Z,10.1
2023-03-13T04:57:09.077Z,10.1
2023-03-13T04:58:09.119Z,10.1
2023-03-13T04:59:16.537Z,10.1
2023-03-13T05:00:09.186Z,10.1
2023-03-13T05:01:09.260Z,10.1
2023-03-13T05:02:33.625Z,10.2
2023-03-13T05:03:09.355Z,10.2
2023-03-13T05:04:09.366Z,10.3
2023-03-13T05:05:25.654Z,10.3
2023-03-13T05:06:09.412Z,10.3
2023-03-13T05:07:09.476Z,10.2
2023-03-13T05:08:26.072Z,10.2
2023-03-13T05:09:09.529Z,10.2
2023-03-13T05:10:12.205Z,10.2
2023-03-13T05:11:31.950Z,10.1
2023-03-13T05:12:13.989Z,10.1
2023-03-13T05:13:09.756Z,10.2
2023-03-13T05:14:24.014Z,10.2
2023-03-13T05:15:09.939Z,10.2
2023-03-13T05:16:10.031Z,10.2
2023-03-13T05:17:24.320Z,10.2
2023-03-13T05:18:10.143Z,10.2
2023-03-13T05:19:10.198Z,10.2
2023-03-13T05:20:24.069Z,10.2
2023-03-13T05:21:10.309Z,10.2
2023-03-13T05:22:10.405Z,10.2
2023-03-13T05:23:24.259Z,10.2
2023-03-13T05:24:10.430Z,10.2
2023-03-13T05:25:10.501Z,10.3
2023-03-13T05:26:27.467Z,10.3
2023-03-13T05:27:10.656Z,10.3
2023-03-13T05:28:10.647Z,10.3
2023-03-13T05:29:25.107Z,10.3
2023-03-13T05:30:10.745Z,10.3
2023-03-13T05:31:10.893Z,10.3
2023-03-13T05:32:10.835Z,10.3
2023-03-13T05:33:19.221Z,10.3
2023-03-13T05:34:11.185Z,10.3
2023-03-13T05:35:40.120Z,10.3
2023-03-13T05:36:11.025Z,10.3
2023-03-13T05:37:11.157Z,10.3
2023-03-13T05:38:39.715Z,10.3
2023-03-13T05:39:11.162Z,10.3
2023-03-13T05:40:11.178Z,10.4
2023-03-13T05:41:39.892Z,10.4
2023-03-13T05:42:11.302Z,10.4
2023-03-13T05:43:11.352Z,10.4
2023-03-13T05:44:45.777Z,10.3
2023-03-13T05:45:11.403Z,10.3
2023-03-13T05:46:11.504Z,10.4
2023-03-13T05:47:39.285Z,10.5
2023-03-13T05:48:11.518Z,10.5
2023-03-13T05:49:11.601Z,10.5
2023-03-13T05:50:36.507Z,10.5
2023-03-13T05:51:11.598Z,10.4
2023-03-13T05:52:11.682Z,10.4
2023-03-13T05:53:11.712Z,10.4
2023-03-13T05:54:13.108Z,10.5
2023-03-13T05:55:12.566Z,10.4
2023-03-13T05:56:39.608Z,10.5
2023-03-13T05:57:11.870Z,10.5
2023-03-13T05:58:11.905Z,10.6
2023-03-13T05:59:39.586Z,10.6
2023-03-13T06:00:11.940Z,10.6
2023-03-13T06:01:11.961Z,10.7
2023-03-13T06:02:11.942Z,10.7
2023-03-13T06:03:14.182Z,10.7
2023-03-13T06:04:12.135Z,10.7
2023-03-13T06:05:14.244Z,10.7
2023-03-13T06:06:12.116Z,10.7
2023-03-13T06:07:13.365Z,10.7
2023-03-13T06:08:12.201Z,10.7
2023-03-13T06:09:13.443Z,10.8
2023-03-13T06:10:12.251Z,10.9
2023-03-13T06:11:13.765Z,10.8
2023-03-13T06:12:12.325Z,10.8
2023-03-13T06:13:20.215Z,10.8
2023-03-13T06:14:12.360Z,10.8
2023-03-13T06:15:23.083Z,10.8
2023-03-13T06:16:12.513Z,10.8
2023-03-13T06:17:21.990Z,10.8
2023-03-13T06:18:12.522Z,10.8
2023-03-13T06:19:22.026Z,10.8
2023-03-13T06:20:12.585Z,10.8
2023-03-13T06:21:22.185Z,10.9
2023-03-13T06:22:12.667Z,10.9
2023-03-13T06:23:22.660Z,10.9
2023-03-13T06:24:12.809Z,10.9
2023-03-13T06:25:24.668Z,10.9
2023-03-13T06:26:12.956Z,10.9
2023-03-13T06:27:22.770Z,10.9
2023-03-13T06:28:13.083Z,10.9
2023-03-13T06:29:22.783Z,10.9
2023-03-13T06:30:13.208Z,10.9
2023-03-13T06:31:22.484Z,11
2023-03-13T06:32:13.354Z,11
2023-03-13T06:33:21.810Z,11.1
2023-03-13T06:34:13.435Z,11.1
2023-03-13T06:35:23.791Z,11.2
2023-03-13T06:36:13.550Z,11.2
2023-03-13T06:37:22.148Z,11.3
2023-03-13T06:38:13.629Z,11.3
2023-03-13T06:39:27.006Z,11.3
2023-03-13T06:40:13.730Z,11.3
2023-03-13T06:41:21.767Z,11.3
2023-03-13T06:42:13.771Z,11.3
2023-03-13T06:43:22.358Z,11.3
2023-03-13T06:44:13.867Z,11.3
2023-03-13T06:45:22.186Z,11.3
2023-03-13T06:46:13.953Z,11.3
2023-03-13T06:47:23.373Z,11.3
2023-03-13T06:48:14.030Z,11.4
2023-03-13T06:49:22.158Z,11.4
2023-03-13T06:50:14.084Z,11.4
2023-03-13T06:51:24.034Z,11.4
2023-03-13T06:52:14.180Z,11.3
2023-03-13T06:53:22.507Z,11.3
2023-03-13T06:54:14.296Z,11.3
2023-03-13T06:55:22.177Z,11.3
2023-03-13T06:56:14.359Z,11.3
2023-03-13T06:57:21.854Z,11.3
2023-03-13T06:58:28.999Z,11.3
2023-03-13T06:59:21.727Z,11.3
2023-03-13T07:00:14.517Z,11.3
2023-03-13T07:01:21.666Z,11.3
2023-03-13T07:02:14.581Z,11.3
2023-03-13T07:03:22.479Z,11.3
2023-03-13T07:04:14.710Z,11.2
2023-03-13T07:05:21.562Z,11.3
2023-03-13T07:06:14.722Z,11.3
2023-03-13T07:07:31.090Z,11.4
2023-03-13T07:08:14.798Z,11.4
2023-03-13T07:09:22.259Z,11.4
2023-03-13T07:10:14.895Z,11.3
2023-03-13T07:11:22.615Z,11.4
2023-03-13T07:12:14.929Z,11.4
2023-03-13T07:13:22.306Z,11.4
2023-03-13T07:14:17.211Z,11.4
2023-03-13T07:15:22.041Z,11.4
2023-03-13T07:16:15.121Z,11.4
2023-03-13T07:17:23.351Z,11.4
2023-03-13T07:18:15.162Z,11.4
2023-03-13T07:19:21.428Z,11.4
2023-03-13T07:20:16.537Z,11.4
2023-03-13T07:21:21.712Z,11.4
2023-03-13T07:22:15.297Z,11.4
2023-03-13T07:23:22.035Z,11.4
2023-03-13T07:24:15.455Z,11.4
2023-03-13T07:25:22.192Z,11.4
2023-03-13T07:26:15.482Z,11.4
2023-03-13T07:27:21.573Z,11.5
2023-03-13T07:28:15.519Z,11.5
2023-03-13T07:29:22.059Z,11.5
2023-03-13T07:30:15.546Z,11.5
2023-03-13T07:31:22.429Z,11.5
2023-03-13T07:32:15.603Z,11.5
2023-03-13T07:33:21.504Z,11.6
2023-03-13T07:34:15.698Z,11.5
2023-03-13T07:35:16.271Z,11.5
2023-03-13T07:36:15.932Z,11.6
2023-03-13T07:37:23.530Z,11.6
2023-03-13T07:38:16.817Z,11.6
2023-03-13T07:39:28.295Z,11.7
2023-03-13T07:40:16.176Z,11.7
2023-03-13T07:41:30.130Z,11.6
2023-03-13T07:42:18.786Z,11.6
2023-03-13T07:43:28.554Z,11.6
2023-03-13T07:44:16.447Z,11.6
2023-03-13T07:45:29.053Z,11.7
2023-03-13T07:46:16.706Z,11.7
2023-03-13T07:47:29.472Z,11.8
2023-03-13T07:48:16.754Z,11.9
2023-03-13T07:49:29.033Z,11.8
2023-03-13T07:50:16.992Z,11.9
2023-03-13T07:51:42.386Z,11.8
2023-03-13T07:52:19.410Z,11.8
2023-03-13T07:53:28.536Z,11.8
2023-03-13T07:54:23.017Z,11.7
2023-03-13T07:55:29.872Z,11.7
2023-03-13T07:56:17.328Z,11.8
2023-03-13T07:57:28.793Z,11.8
2023-03-13T07:58:17.446Z,11.9
2023-03-13T07:59:28.206Z,11.8
2023-03-13T08:00:17.367Z,11.8
2023-03-13T08:01:30.802Z,11.9
2023-03-13T08:02:21.004Z,12
2023-03-13T08:03:34.792Z,12
2023-03-13T08:04:18.336Z,12
2023-03-13T08:05:28.471Z,12.1
2023-03-13T08:06:18.222Z,12.1
2023-03-13T08:07:28.461Z,12.1
2023-03-13T08:08:18.234Z,12.2
2023-03-13T08:09:30.983Z,12.3
2023-03-13T08:10:18.348Z,12.2
2023-03-13T08:11:29.466Z,12.2
2023-03-13T08:12:22.106Z,12.3
2023-03-13T08:13:28.659Z,12.2
2023-03-13T08:14:19.905Z,12.1
2023-03-13T08:15:28.632Z,12.1
2023-03-13T08:16:19.290Z,12.2
2023-03-13T08:17:30.837Z,12.2
2023-03-13T08:18:18.540Z,12.2
2023-03-13T08:19:28.412Z,12.2
2023-03-13T08:20:18.399Z,12.2
2023-03-13T08:21:28.023Z,12.3
2023-03-13T08:22:20.214Z,12.3
2023-03-13T08:23:28.046Z,12.4
2023-03-13T08:24:18.182Z,12.4
2023-03-13T08:25:30.161Z,12.3
2023-03-13T08:26:18.606Z,12.3
2023-03-13T08:27:30.125Z,12.2
2023-03-13T08:28:18.597Z,12.2
2023-03-13T08:29:27.912Z,12.2
2023-03-13T08:30:18.511Z,12.2
2023-03-13T08:31:28.330Z,12.2
2023-03-13T08:32:21.180Z,12.2
2023-03-13T08:33:28.017Z,12.1
2023-03-13T08:34:19.562Z,12.1
2023-03-13T08:35:28.669Z,12.1
2023-03-13T08:36:20.278Z,12.2
2023-03-13T08:37:28.808Z,12.3
2023-03-13T08:38:19.575Z,12.3
2023-03-13T08:39:29.579Z,12.3
2023-03-13T08:40:19.598Z,12.4
2023-03-13T08:41:28.637Z,12.3
2023-03-13T08:42:20.694Z,12.4
2023-03-13T08:43:28.835Z,12.3
2023-03-13T08:44:19.618Z,12.3
2023-03-13T08:45:28.749Z,12.3
2023-03-13T08:46:20.546Z,12.3
2023-03-13T08:47:28.824Z,12.3
2023-03-13T08:48:19.991Z,12.3
2023-03-13T08:49:29.700Z,12.3
2023-03-13T08:50:19.828Z,12.3
2023-03-13T08:51:30.070Z,12.3
2023-03-13T08:52:23.030Z,12.3
2023-03-13T08:53:28.951Z,12.4
2023-03-13T08:54:20.798Z,12.5
2023-03-13T08:55:28.885Z,12.5
2023-03-13T08:56:20.212Z,12.5
2023-03-13T08:57:28.766Z,12.4
2023-03-13T08:58:19.969Z,12.4
2023-03-13T08:59:29.778Z,12.3
2023-03-13T09:00:19.926Z,12.3
2023-03-13T09:01:31.646Z,12.4
2023-03-13T09:02:20.155Z,12.5
2023-03-13T09:03:29.855Z,12.6
2023-03-13T09:04:21.091Z,12.6
2023-03-13T09:05:28.824Z,12.6
2023-03-13T09:06:20.284Z,12.5
2023-03-13T09:07:29.588Z,12.5
2023-03-13T09:08:20.306Z,12.5
2023-03-13T09:09:33.972Z,12.5
2023-03-13T09:10:20.396Z,12.5
2023-03-13T09:11:28.943Z,12.4
2023-03-13T09:12:30.660Z,12.4
2023-03-13T09:13:29.146Z,12.5
2023-03-13T09:15:30.049Z,12.6
2023-03-13T09:16:20.696Z,12.6
2023-03-13T09:18:06.622Z,12.6
2023-03-13T09:18:20.761Z,12.6
2023-03-13T09:19:50.650Z,12.6
2023-03-13T09:20:20.947Z,12.5
2023-03-13T09:21:30.774Z,12.5
2023-03-13T09:22:22.752Z,12.5
2023-03-13T09:23:38.874Z,12.6
2023-03-13T09:24:33.041Z,12.5
2023-03-13T09:25:39.776Z,12.5
2023-03-13T09:26:23.739Z,12.6
2023-03-13T09:27:43.127Z,12.5
2023-03-13T09:28:23.829Z,12.5
2023-03-13T09:29:38.932Z,12.6
2023-03-13T09:30:23.682Z,12.6
2023-03-13T09:31:38.928Z,12.5
2023-03-13T09:32:24.333Z,12.5
2023-03-13T09:33:34.495Z,12.6
2023-03-13T09:34:28.647Z,12.6
2023-03-13T09:35:21.279Z,12.6
2023-03-13T09:36:23.766Z,12.6
2023-03-13T09:37:27.785Z,12.6
2023-03-13T09:38:23.898Z,12.5
2023-03-13T09:39:23.516Z,12.5
2023-03-13T09:40:23.941Z,12.5
2023-03-13T09:41:21.465Z,12.6
2023-03-13T09:42:29.615Z,12.6
2023-03-13T09:43:21.521Z,12.6
2023-03-13T09:44:21.623Z,12.6
2023-03-13T09:45:21.612Z,12.6
2023-03-13T09:46:25.314Z,12.6
2023-03-13T09:47:21.910Z,12.6
2023-03-13T09:48:25.595Z,12.7
2023-03-13T09:49:21.747Z,12.7
2023-03-13T09:50:25.573Z,12.7
2023-03-13T09:51:21.812Z,12.7
2023-03-13T09:52:22.272Z,12.7
2023-03-13T09:53:21.892Z,12.7
2023-03-13T09:54:22.047Z,12.7
2023-03-13T09:55:21.918Z,12.7
2023-03-13T09:56:21.965Z,12.7
2023-03-13T09:57:22.003Z,12.6
2023-03-13T09:58:22.050Z,12.6
2023-03-13T09:59:22.171Z,12.6
2023-03-13T10:00:22.411Z,12.6
2023-03-13T10:01:22.276Z,12.6
2023-03-13T10:02:22.364Z,12.6
2023-03-13T10:03:22.407Z,12.6
2023-03-13T10:04:22.554Z,12.6
2023-03-13T10:05:22.568Z,12.6
2023-03-13T10:06:22.875Z,12.6
2023-03-13T10:07:22.677Z,12.5
2023-03-13T10:08:27.155Z,12.5
2023-03-13T10:09:22.948Z,12.6
2023-03-13T10:10:26.812Z,12.6
2023-03-13T10:11:22.816Z,12.6
2023-03-13T10:12:33.773Z,12.6
2023-03-13T10:13:22.931Z,12.5
2023-03-13T10:14:22.993Z,12.5
2023-03-13T10:15:23.036Z,12.5
2023-03-13T10:16:23.152Z,12.5
2023-03-13T10:17:23.136Z,12.4
2023-03-13T10:18:27.256Z,12.4
2023-03-13T10:19:23.207Z,12.4
2023-03-13T10:20:29.046Z,12.4
2023-03-13T10:21:23.281Z,12.4
2023-03-13T10:22:30.577Z,12.4
2023-03-13T10:23:23.406Z,12.4
2023-03-13T10:24:23.745Z,12.4
2023-03-13T10:25:23.396Z,12.4
2023-03-13T10:26:23.422Z,12.4
2023-03-13T10:27:23.628Z,12.4
2023-03-13T10:28:30.981Z,12.4
2023-03-13T10:29:46.668Z,12.4
2023-03-13T10:30:32.812Z,12.4
2023-03-13T10:31:47.972Z,12.4
2023-03-13T10:32:33.798Z,12.4
2023-03-13T10:33:46.546Z,12.4
2023-03-13T10:34:40.749Z,12.4
2023-03-13T10:35:47.918Z,12.4
2023-03-13T10:36:35.270Z,12.4
2023-03-13T10:37:47.368Z,12.5
2023-03-13T10:38:35.281Z,12.5
2023-03-13T10:39:46.304Z,12.5
2023-03-13T10:40:35.368Z,12.4
2023-03-13T10:41:40.822Z,12.4
2023-03-13T10:42:39.603Z,12.4
2023-03-13T10:43:46.132Z,12.4
2023-03-13T10:44:38.362Z,12.4
2023-03-13T10:45:46.917Z,12.4
2023-03-13T10:46:38.500Z,12.4
2023-03-13T10:47:47.919Z,12.5
2023-03-13T10:48:38.438Z,12.5
2023-03-13T10:49:49.458Z,12.5
2023-03-13T10:50:38.356Z,12.5
2023-03-13T10:51:49.213Z,12.5
2023-03-13T10:52:39.490Z,12.5
2023-03-13T10:53:50.039Z,12.5
2023-03-13T10:54:41.231Z,12.5
2023-03-13T10:55:49.950Z,12.5
2023-03-13T10:56:43.594Z,12.4
2023-03-13T10:57:52.087Z,12.5
2023-03-13T10:58:38.435Z,12.5
2023-03-13T10:59:52.412Z,12.6
2023-03-13T11:00:39.663Z,12.5
2023-03-13T11:01:50.979Z,12.5
2023-03-13T11:02:38.656Z,12.5
2023-03-13T11:03:52.107Z,12.5
2023-03-13T11:04:38.859Z,12.6
2023-03-13T11:05:50.961Z,12.6
2023-03-13T11:06:49.704Z,12.6
2023-03-13T11:07:56.939Z,12.6
2023-03-13T11:08:40.328Z,12.6
2023-03-13T11:09:58.128Z,12.7
2023-03-13T11:10:39.033Z,12.7
2023-03-13T11:11:59.970Z,12.8
2023-03-13T11:12:40.125Z,12.8
2023-03-13T11:13:58.467Z,12.7
2023-03-13T11:14:36.911Z,12.7
2023-03-13T11:15:47.429Z,12.7
2023-03-13T11:16:37.077Z,12.7
2023-03-13T11:17:37.088Z,12.8
2023-03-13T11:19:18.330Z,12.8
2023-03-13T11:19:37.145Z,12.8
2023-03-13T11:20:37.212Z,12.8
2023-03-13T11:22:34.394Z,12.8
2023-03-13T11:23:18.431Z,12.9
2023-03-13T11:23:47.928Z,12.9
2023-03-13T11:25:36.342Z,12.8
2023-03-13T11:25:45.904Z,12.9
2023-03-13T11:26:37.551Z,12.9
2023-03-13T11:29:45.066Z,13.1
2023-03-13T11:30:42.155Z,13.1
2023-03-13T11:31:37.700Z,13.2
2023-03-13T11:32:37.770Z,13.3
2023-03-13T11:33:37.715Z,13.2
2023-03-13T11:34:37.779Z,13.2
2023-03-13T11:35:37.786Z,13.2
2023-03-13T11:36:37.848Z,13.2
2023-03-13T11:37:37.840Z,13.2
2023-03-13T11:38:37.900Z,13.2
2023-03-13T11:39:49.541Z,13.3
2023-03-13T11:40:37.938Z,13.2
2023-03-13T11:41:42.025Z,13.2
2023-03-13T11:42:38.008Z,13.2
2023-03-13T11:43:42.590Z,13.2
2023-03-13T11:44:38.097Z,13.2
2023-03-13T11:45:38.188Z,13.2
2023-03-13T11:46:38.306Z,13.2
2023-03-13T11:47:42.082Z,13.2
2023-03-13T11:48:38.201Z,13.2
2023-03-13T11:49:53.206Z,13.2
2023-03-13T11:50:38.281Z,13.2
2023-03-13T11:51:42.141Z,13.4
2023-03-13T11:52:38.367Z,13.5
2023-03-13T11:53:42.088Z,13.5
2023-03-13T11:54:38.418Z,13.6
2023-03-13T11:55:42.069Z,13.6
2023-03-13T11:56:38.524Z,13.6
2023-03-13T11:57:42.062Z,13.7
2023-03-13T11:58:38.585Z,13.7
2023-03-13T11:59:48.666Z,13.7
2023-03-13T12:00:46.723Z,13.8
2023-03-13T12:01:42.012Z,13.8
2023-03-13T12:02:38.778Z,13.8
2023-03-13T12:03:45.299Z,13.8
2023-03-13T12:04:38.759Z,13.8
2023-03-13T12:05:42.431Z,13.8
2023-03-13T12:06:38.814Z,13.9
2023-03-13T12:09:50.505Z,14
2023-03-13T12:10:39.368Z,14
2023-03-13T12:12:39.133Z,14.1
2023-03-13T12:13:47.181Z,14.2
2023-03-13T12:14:39.117Z,14.2
2023-03-13T12:15:42.197Z,14.2
2023-03-13T12:16:39.240Z,14.2
2023-03-13T12:17:42.220Z,14.2
2023-03-13T12:18:39.233Z,14.2
2023-03-13T12:19:45.354Z,14.2
2023-03-13T12:20:39.384Z,14.3
2023-03-13T12:21:39.451Z,14.3
2023-03-13T12:22:39.548Z,14.3
2023-03-13T12:23:39.674Z,14.3
2023-03-13T12:24:39.675Z,14.4
2023-03-13T12:25:44.064Z,14.5
2023-03-13T12:26:39.837Z,14.5
2023-03-13T12:27:43.796Z,14.4
2023-03-13T12:28:40.239Z,14.4
2023-03-13T12:30:00.934Z,14.3
2023-03-13T12:30:43.493Z,14.3
2023-03-13T12:31:40.164Z,14.3
2023-03-13T12:32:45.252Z,14.4
2023-03-13T12:33:40.299Z,14.4
2023-03-13T12:34:43.899Z,14.4
2023-03-13T12:35:44.437Z,14.3
2023-03-13T12:36:41.180Z,14.3
2023-03-13T12:37:44.357Z,14.3
2023-03-13T12:38:50.068Z,14.3
2023-03-13T12:39:48.730Z,14.3
2023-03-13T12:40:49.266Z,14.4
2023-03-13T12:41:40.761Z,14.3
2023-03-13T12:42:51.166Z,14.3
2023-03-13T12:43:40.873Z,14.4
2023-03-13T12:44:52.185Z,14.4
2023-03-13T12:45:41.086Z,14.4
2023-03-13T12:46:51.319Z,14.4
2023-03-13T12:47:41.136Z,14.4
2023-03-13T12:48:56.074Z,14.4
2023-03-13T12:49:50.461Z,14.4
2023-03-13T12:50:52.008Z,14.4
2023-03-13T12:51:41.361Z,14.3
2023-03-13T12:52:52.050Z,14.3
2023-03-13T12:53:41.603Z,14.3
2023-03-13T12:54:43.700Z,14.3
2023-03-13T12:55:41.584Z,14.3
2023-03-13T12:56:54.992Z,14.3
2023-03-13T12:57:41.749Z,14.4
2023-03-13T12:58:54.573Z,14.3
2023-03-13T12:59:48.859Z,14.4
2023-03-13T13:00:52.985Z,14.3
2023-03-13T13:01:41.825Z,14.3
2023-03-13T13:02:52.852Z,14.3
2023-03-13T13:03:42.075Z,14.3
2023-03-13T13:04:52.984Z,14.3
2023-03-13T13:05:41.932Z,14.3
2023-03-13T13:06:53.351Z,14.3
2023-03-13T13:07:41.973Z,14.3
2023-03-13T13:08:52.940Z,14.3
2023-03-13T13:09:48.856Z,14.3
2023-03-13T13:10:52.566Z,14.3
2023-03-13T13:11:42.111Z,14.3
2023-03-13T13:12:52.459Z,14.3
2023-03-13T13:13:42.202Z,14.3
2023-03-13T13:14:53.524Z,14.3
2023-03-13T13:15:42.339Z,14.3
2023-03-13T13:16:54.984Z,14.3
2023-03-13T13:17:42.328Z,14.3
2023-03-13T13:18:52.748Z,14.3
2023-03-13T13:19:48.725Z,14.2
2023-03-13T13:20:53.155Z,14.2
2023-03-13T13:21:42.431Z,14.2
2023-03-13T13:22:56.109Z,14.2
2023-03-13T13:23:42.524Z,14.2
2023-03-13T13:24:52.456Z,14.1
2023-03-13T13:25:42.608Z,14.1
2023-03-13T13:26:54.547Z,14
2023-03-13T13:27:42.655Z,14
2023-03-13T13:28:54.850Z,14
2023-03-13T13:30:00.145Z,13.9
2023-03-13T13:30:59.004Z,13.9
2023-03-13T13:31:42.899Z,13.9
2023-03-13T13:33:02.597Z,14
2023-03-13T13:33:42.963Z,14
2023-03-13T13:34:58.520Z,14.1
2023-03-13T13:35:43.178Z,14.1
2023-03-13T13:36:58.858Z,14.1
2023-03-13T13:37:43.295Z,14.1
2023-03-13T13:38:59.383Z,14.1